createdAt,value
2023-01-31T00:01:07.156Z,2.13
2023-01-31T00:03:33.650Z,2.08
2023-01-31T00:06:00.178Z,2.00
2023-01-31T00:08:26.851Z,2.20
2023-01-31T00:10:53.709Z,2.30
2023-01-31T00:13:20.227Z,2.47
2023-01-31T00:15:46.652Z,1.90
2023-01-31T00:18:13.546Z,2.28
2023-01-31T00:20:40.317Z,2.35
2023-01-31T00:23:07.077Z,1.83
2023-01-31T00:25:33.481Z,1.90
2023-01-31T00:27:59.941Z,2.13
2023-01-31T00:30:27.511Z,2.08
2023-01-31T00:32:54.045Z,2.30
2023-01-31T00:35:20.848Z,2.25
2023-01-31T00:37:47.781Z,1.95
2023-01-31T00:40:14.312Z,2.42
2023-01-31T00:42:41.272Z,2.42
2023-01-31T00:45:10.321Z,2.10
2023-01-31T00:47:37.037Z,2.15
2023-01-31T00:50:04.006Z,2.33
2023-01-31T00:52:30.399Z,2.10
2023-01-31T00:54:56.997Z,2.40
2023-01-31T00:57:23.472Z,2.08
2023-01-31T00:59:49.890Z,1.88
2023-01-31T01:02:16.718Z,2.33
2023-01-31T01:04:43.273Z,2.22
2023-01-31T01:07:09.600Z,2.30
2023-01-31T01:09:36.329Z,1.70
2023-01-31T01:12:02.774Z,2.50
2023-01-31T01:14:29.939Z,1.83
2023-01-31T01:16:56.604Z,2.40
2023-01-31T01:19:23.927Z,2.72
2023-01-31T01:21:50.314Z,2.60
2023-01-31T01:24:16.808Z,2.65
2023-01-31T01:26:43.516Z,2.42
2023-01-31T01:29:10.207Z,2.13
2023-01-31T01:31:36.908Z,2.63
2023-01-31T01:34:03.311Z,2.40
2023-01-31T01:36:29.731Z,2.00
2023-01-31T01:38:56.548Z,2.28
2023-01-31T01:41:23.170Z,2.40
2023-01-31T01:43:49.641Z,2.35
2023-01-31T01:46:16.651Z,2.30
2023-01-31T01:48:43.431Z,2.15
2023-01-31T01:51:09.992Z,2.40
2023-01-31T01:53:36.913Z,2.35
2023-01-31T01:56:03.657Z,2.45
2023-01-31T01:58:30.318Z,2.10
2023-01-31T02:00:57.031Z,2.05
2023-01-31T02:03:23.526Z,2.25
2023-01-31T02:05:50.095Z,2.13
2023-01-31T02:08:16.981Z,2.45
2023-01-31T02:10:43.381Z,2.20
2023-01-31T02:13:09.868Z,1.92
2023-01-31T02:15:36.199Z,2.03
2023-01-31T02:18:03.742Z,1.95
2023-01-31T02:20:30.239Z,1.80
2023-01-31T02:22:56.590Z,2.13
2023-01-31T02:25:23.009Z,2.25
2023-01-31T02:27:49.363Z,2.45
2023-01-31T02:30:15.719Z,2.67
2023-01-31T02:32:42.367Z,1.80
2023-01-31T02:35:08.737Z,2.13
2023-01-31T02:37:35.094Z,2.55
2023-01-31T02:40:01.494Z,1.92
2023-01-31T02:42:28.025Z,2.50
2023-01-31T02:44:54.510Z,2.35
2023-01-31T02:47:21.240Z,2.10
2023-01-31T02:49:47.910Z,2.53
2023-01-31T02:52:14.445Z,2.42
2023-01-31T02:54:40.815Z,2.30
2023-01-31T02:57:07.512Z,2.28
2023-01-31T02:59:34.075Z,1.80
2023-01-31T03:02:00.541Z,2.60
2023-01-31T03:04:27.244Z,2.40
2023-01-31T03:06:53.709Z,1.77
2023-01-31T03:09:20.904Z,2.50
2023-01-31T03:11:47.514Z,2.17
2023-01-31T03:14:14.064Z,2.35
2023-01-31T03:16:40.828Z,2.30
2023-01-31T03:19:08.301Z,2.08
2023-01-31T03:21:35.338Z,2.00
2023-01-31T03:24:02.131Z,1.98
2023-01-31T03:26:28.643Z,2.03
2023-01-31T03:28:55.278Z,2.30
2023-01-31T03:31:21.842Z,1.95
2023-01-31T03:33:49.395Z,1.90
2023-01-31T03:36:15.881Z,1.80
2023-01-31T03:38:42.333Z,1.80
2023-01-31T03:41:09.474Z,2.20
2023-01-31T03:43:36.169Z,2.47
2023-01-31T03:46:02.839Z,1.90
2023-01-31T03:48:29.566Z,2.15
2023-01-31T03:50:55.965Z,2.05
2023-01-31T03:53:22.429Z,1.90
2023-01-31T03:55:48.958Z,1.83
2023-01-31T03:58:15.716Z,2.00
2023-01-31T04:00:42.365Z,2.10
2023-01-31T04:03:09.504Z,1.95
2023-01-31T04:05:36.091Z,1.92
2023-01-31T04:08:02.714Z,1.88
2023-01-31T04:10:29.513Z,2.35
2023-01-31T04:12:56.091Z,2.22
2023-01-31T04:15:23.051Z,2.25
2023-01-31T04:17:49.767Z,2.15
2023-01-31T04:20:16.475Z,1.90
2023-01-31T04:22:43.244Z,2.05
2023-01-31T04:25:10.280Z,1.88
2023-01-31T04:27:37.146Z,2.13
2023-01-31T04:30:03.577Z,1.88
2023-01-31T04:32:30.085Z,2.13
2023-01-31T04:34:57.210Z,1.52
2023-01-31T04:37:23.947Z,2.00
2023-01-31T04:39:50.378Z,2.25
2023-01-31T04:42:17.068Z,1.75
2023-01-31T04:44:43.760Z,2.13
2023-01-31T04:47:10.155Z,2.00
2023-01-31T04:49:36.640Z,1.83
2023-01-31T04:52:03.649Z,2.17
2023-01-31T04:54:30.141Z,1.90
2023-01-31T04:56:56.623Z,1.85
2023-01-31T04:59:24.031Z,1.98
2023-01-31T05:01:50.489Z,2.10
2023-01-31T05:04:17.479Z,2.00
2023-01-31T05:06:44.201Z,2.00
2023-01-31T05:09:10.817Z,1.83
2023-01-31T05:11:38.042Z,2.10
2023-01-31T05:14:04.827Z,1.80
2023-01-31T05:16:31.687Z,1.60
2023-01-31T05:18:58.077Z,1.73
2023-01-31T05:21:24.571Z,2.13
2023-01-31T05:23:51.042Z,2.10
2023-01-31T05:26:17.892Z,1.50
2023-01-31T05:28:44.382Z,1.80
2023-01-31T05:31:11.898Z,2.00
2023-01-31T05:33:38.396Z,1.88
2023-01-31T05:36:06.062Z,1.58
2023-01-31T05:38:32.525Z,1.88
2023-01-31T05:40:59.382Z,1.80
2023-01-31T05:43:26.250Z,2.22
2023-01-31T05:45:52.696Z,1.77
2023-01-31T05:48:19.164Z,2.47
2023-01-31T05:50:45.814Z,1.63
2023-01-31T05:53:12.381Z,1.50
2023-01-31T05:55:41.189Z,2.00
2023-01-31T05:58:08.432Z,2.20
2023-01-31T06:00:35.419Z,2.20
2023-01-31T06:03:02.341Z,1.80
2023-01-31T06:05:29.471Z,1.58
2023-01-31T06:07:56.108Z,1.80
2023-01-31T06:10:22.729Z,1.85
2023-01-31T06:12:49.461Z,1.60
2023-01-31T06:15:15.852Z,1.50
2023-01-31T06:17:42.444Z,1.60
2023-01-31T06:20:09.202Z,1.98
2023-01-31T06:22:36.439Z,1.77
2023-01-31T06:25:03.524Z,2.00
2023-01-31T06:27:30.534Z,1.80
2023-01-31T06:29:57.103Z,1.98
2023-01-31T06:32:23.773Z,2.20
2023-01-31T06:34:50.234Z,1.60
2023-01-31T06:37:17.043Z,1.70
2023-01-31T06:39:43.755Z,1.83
2023-01-31T06:42:10.707Z,1.92
2023-01-31T06:44:38.113Z,1.70
2023-01-31T06:47:04.626Z,1.77
2023-01-31T06:49:32.674Z,1.92
2023-01-31T06:51:59.480Z,2.42
2023-01-31T06:54:26.306Z,2.22
2023-01-31T06:56:52.863Z,1.92
2023-01-31T06:59:19.346Z,1.80
2023-01-31T07:01:46.418Z,2.03
2023-01-31T07:04:13.507Z,2.05
2023-01-31T07:06:39.909Z,2.15
2023-01-31T07:09:06.309Z,2.85
2023-01-31T07:11:33.315Z,2.60
2023-01-31T07:13:59.757Z,2.95
2023-01-31T07:16:26.420Z,3.55
2023-01-31T07:18:53.872Z,2.85
2023-01-31T07:21:20.302Z,3.17
2023-01-31T07:23:46.732Z,3.63
2023-01-31T07:26:13.221Z,4.07
2023-01-31T07:28:40.276Z,4.43
2023-01-31T07:31:06.816Z,4.95
2023-01-31T07:33:33.861Z,5.78
2023-01-31T07:36:00.357Z,5.97
2023-01-31T07:38:26.740Z,5.80
2023-01-31T07:40:53.589Z,5.65
2023-01-31T07:43:20.088Z,6.35
2023-01-31T07:45:46.647Z,6.88
2023-01-31T07:48:13.787Z,6.35
2023-01-31T07:50:40.474Z,6.85
2023-01-31T07:53:07.032Z,7.43
2023-01-31T07:55:33.531Z,7.47
2023-01-31T07:58:00.184Z,7.15
2023-01-31T08:00:26.875Z,7.15
2023-01-31T08:02:53.539Z,8.50
2023-01-31T08:05:20.531Z,7.60
